createdAt,value
2023-04-26T00:00:50.404Z,16.91
2023-04-26T00:03:20.821Z,16.83
2023-04-26T00:05:53.634Z,16.11
2023-04-26T00:08:23.639Z,16.08
2023-04-26T00:10:53.590Z,16.82
2023-04-26T00:13:23.736Z,16.55
2023-04-26T00:15:53.791Z,16.59
2023-04-26T00:18:23.874Z,16.47
2023-04-26T00:20:56.677Z,16.94
2023-04-26T00:23:26.762Z,16.65
2023-04-26T00:25:56.675Z,16.55
2023-04-26T00:28:26.637Z,16.35
2023-04-26T00:30:58.179Z,16.35
2023-04-26T00:33:28.205Z,16.76
2023-04-26T00:36:00.700Z,16.59
2023-04-26T00:38:31.777Z,16.90
2023-04-26T00:41:01.672Z,16.39
2023-04-26T00:43:31.696Z,16.53
2023-04-26T00:46:01.937Z,16.93
2023-04-26T00:48:32.420Z,16.94
2023-04-26T00:51:05.766Z,16.58
2023-04-26T00:53:35.741Z,16.60
2023-04-26T00:56:06.955Z,16.89
2023-04-26T00:58:37.111Z,16.32
2023-04-26T01:01:08.018Z,16.25
2023-04-26T01:03:40.826Z,15.99
2023-04-26T01:06:14.259Z,15.89
2023-04-26T01:08:44.811Z,15.56
2023-04-26T01:11:14.915Z,16.23
2023-04-26T01:13:45.126Z,15.95
2023-04-26T01:16:19.342Z,15.71
2023-04-26T01:18:54.343Z,15.32
2023-04-26T01:21:27.908Z,14.90
2023-04-26T01:24:01.496Z,15.87
2023-04-26T01:26:31.808Z,15.11
2023-04-26T01:29:01.786Z,15.15
2023-04-26T01:31:31.797Z,14.70
2023-04-26T01:34:01.754Z,14.57
2023-04-26T01:36:32.705Z,15.61
2023-04-26T01:39:05.875Z,14.86
2023-04-26T01:41:36.015Z,15.60
2023-04-26T01:44:05.986Z,15.50
2023-04-26T01:46:36.170Z,15.62
2023-04-26T01:49:06.245Z,15.05
2023-04-26T01:51:37.163Z,15.08
2023-04-26T01:54:12.515Z,15.07
2023-04-26T01:56:42.499Z,15.71
2023-04-26T01:59:12.490Z,15.24
2023-04-26T02:01:44.781Z,14.99
2023-04-26T02:04:14.864Z,14.50
2023-04-26T02:06:45.127Z,14.13
2023-04-26T02:09:18.352Z,13.91
2023-04-26T02:11:48.465Z,13.28
2023-04-26T02:14:18.433Z,13.25
2023-04-26T02:16:48.369Z,13.43
2023-04-26T02:19:18.374Z,12.98
2023-04-26T02:21:59.559Z,13.36
2023-04-26T02:24:33.470Z,13.74
2023-04-26T02:27:05.677Z,13.62
2023-04-26T02:29:44.237Z,14.05
2023-04-26T02:32:14.998Z,13.68
2023-04-26T02:34:45.620Z,14.12
2023-04-26T02:37:15.674Z,14.01
2023-04-26T02:39:48.221Z,13.93
2023-04-26T02:42:18.197Z,13.84
2023-04-26T02:44:48.243Z,13.19
2023-04-26T02:47:18.612Z,12.81
2023-04-26T02:49:49.760Z,12.56
2023-04-26T02:52:19.719Z,11.99
2023-04-26T02:54:53.314Z,11.98
2023-04-26T02:57:24.009Z,11.95
2023-04-26T02:59:53.998Z,11.66
2023-04-26T03:02:24.487Z,12.16
2023-04-26T03:04:54.722Z,12.14
2023-04-26T03:07:25.132Z,11.38
2023-04-26T03:09:58.094Z,11.75
2023-04-26T03:12:28.073Z,11.60
2023-04-26T03:14:58.050Z,11.49
2023-04-26T03:17:28.945Z,11.43
2023-04-26T03:20:01.844Z,10.77
2023-04-26T03:22:32.633Z,10.31
2023-04-26T03:25:05.696Z,10.15
2023-04-26T03:27:36.858Z,9.91
2023-04-26T03:30:07.976Z,9.61
2023-04-26T03:32:39.529Z,9.40
2023-04-26T03:35:10.599Z,10.13
2023-04-26T03:37:41.953Z,9.95
2023-04-26T03:40:17.963Z,9.65
2023-04-26T03:42:48.677Z,9.73
2023-04-26T03:45:19.176Z,9.52
2023-04-26T03:47:49.417Z,10.02
2023-04-26T03:50:19.554Z,9.72
2023-04-26T03:52:50.073Z,9.98
2023-04-26T03:55:22.742Z,9.41
2023-04-26T03:57:54.079Z,9.48
2023-04-26T04:00:26.432Z,9.78
2023-04-26T04:02:56.596Z,9.34
2023-04-26T04:05:28.443Z,9.74
2023-04-26T04:07:59.290Z,9.71
2023-04-26T04:10:32.381Z,9.66
2023-04-26T04:13:02.548Z,9.67
2023-04-26T04:15:33.456Z,9.99
2023-04-26T04:18:04.534Z,9.77
2023-04-26T04:20:34.652Z,9.83
2023-04-26T04:23:07.856Z,9.97
2023-04-26T04:25:41.519Z,10.12
2023-04-26T04:28:14.752Z,9.68
2023-04-26T04:30:46.490Z,10.52
2023-04-26T04:33:17.864Z,10.75
2023-04-26T04:35:48.302Z,10.90
2023-04-26T04:38:18.470Z,11.28
2023-04-26T04:40:53.606Z,11.70
2023-04-26T04:43:23.664Z,12.67
2023-04-26T04:45:54.050Z,12.62
2023-04-26T04:48:24.046Z,13.04
2023-04-26T04:50:54.092Z,13.19
2023-04-26T04:53:24.290Z,12.97
2023-04-26T04:55:57.166Z,13.82
2023-04-26T04:58:27.620Z,13.82
2023-04-26T05:01:01.385Z,13.69
2023-04-26T05:03:34.236Z,14.27
2023-04-26T05:06:05.943Z,13.44
2023-04-26T05:08:36.588Z,14.01
2023-04-26T05:11:11.173Z,13.54
2023-04-26T05:13:41.411Z,14.17
2023-04-26T05:16:11.408Z,13.95
2023-04-26T05:18:41.965Z,14.19
2023-04-26T05:21:12.537Z,15.55
2023-04-26T05:23:43.227Z,15.18
2023-04-26T05:26:18.063Z,15.41
2023-04-26T05:28:48.008Z,15.65
2023-04-26T05:31:42.036Z,15.46
2023-04-26T05:34:34.977Z,15.16
2023-04-26T05:37:05.071Z,15.19
2023-04-26T05:39:35.873Z,15.05
2023-04-26T05:42:08.604Z,14.90
2023-04-26T05:44:39.311Z,14.75
2023-04-26T05:47:09.370Z,14.70
2023-04-26T05:49:39.453Z,13.48
2023-04-26T05:52:09.482Z,11.78
2023-04-26T05:54:40.287Z,11.13
2023-04-26T05:57:12.920Z,9.21
2023-04-26T05:59:43.262Z,8.69
2023-04-26T06:02:13.826Z,9.01
2023-04-26T06:04:43.938Z,9.36
2023-04-26T06:07:17.485Z,8.90
2023-04-26T06:09:49.992Z,9.07
2023-04-26T06:12:22.616Z,9.05
2023-04-26T06:14:52.921Z,9.36
2023-04-26T06:17:25.483Z,9.04
2023-04-26T06:19:55.665Z,9.43
2023-04-26T06:22:25.900Z,9.74
2023-04-26T06:24:57.241Z,9.78
2023-04-26T06:27:29.871Z,10.11
2023-04-26T06:30:00.192Z,9.86
2023-04-26T06:32:30.653Z,9.96
2023-04-26T06:35:00.631Z,9.86
2023-04-26T06:37:31.232Z,10.62
2023-04-26T06:40:02.264Z,10.82
2023-04-26T06:42:34.937Z,11.34
2023-04-26T06:45:25.426Z,11.08
2023-04-26T06:47:55.541Z,11.22
2023-04-26T06:50:27.670Z,11.41
2023-04-26T06:52:57.664Z,10.99
2023-04-26T06:55:27.838Z,10.96
2023-04-26T06:58:00.506Z,10.31
2023-04-26T07:00:30.857Z,10.26
2023-04-26T07:03:01.133Z,9.63
2023-04-26T07:05:31.534Z,10.28
2023-04-26T07:08:01.606Z,10.53
2023-04-26T07:10:33.089Z,11.40
2023-04-26T07:13:08.256Z,12.10
2023-04-26T07:15:39.533Z,12.15
2023-04-26T07:18:09.663Z,12.06
2023-04-26T07:20:39.620Z,12.25
2023-04-26T07:23:09.548Z,12.12
2023-04-26T07:25:39.545Z,11.63
2023-04-26T07:28:12.088Z,10.78
2023-04-26T07:30:42.038Z,11.03
2023-04-26T07:33:12.184Z,10.36
2023-04-26T07:35:42.186Z,10.62
2023-04-26T07:38:14.623Z,10.71
2023-04-26T07:40:44.568Z,10.77
2023-04-26T07:43:17.449Z,10.39
2023-04-26T07:45:47.524Z,9.58
2023-04-26T07:48:18.162Z,14.13
2023-04-26T07:50:48.442Z,11.80
2023-04-26T07:53:18.390Z,11.52
2023-04-26T07:55:48.352Z,11.65
2023-04-26T07:58:21.715Z,11.69
2023-04-26T08:00:51.975Z,10.64
2023-04-26T08:03:22.137Z,10.52
2023-04-26T08:05:54.178Z,10.21
2023-04-26T08:08:24.874Z,9.64
2023-04-26T08:10:55.000Z,10.10
2023-04-26T08:13:29.319Z,11.22
2023-04-26T08:15:59.696Z,10.62
2023-04-26T08:18:29.802Z,9.75
2023-04-26T08:20:59.760Z,9.85
2023-04-26T08:23:29.935Z,9.24
2023-04-26T08:25:59.921Z,9.12
2023-04-26T08:28:32.999Z,9.39
2023-04-26T08:31:03.004Z,9.00
2023-04-26T08:33:33.239Z,9.36
2023-04-26T08:36:03.971Z,8.65
2023-04-26T08:38:33.951Z,8.68
2023-04-26T08:41:05.222Z,8.76
2023-04-26T08:43:41.249Z,7.32
2023-04-26T08:46:18.515Z,7.60
2023-04-26T08:48:57.657Z,8.16
2023-04-26T08:51:29.174Z,9.29
2023-04-26T08:54:04.114Z,8.85
2023-04-26T08:56:36.678Z,9.14
2023-04-26T08:59:09.600Z,7.60
2023-04-26T09:01:42.984Z,8.08
2023-04-26T09:04:13.557Z,8.43
2023-04-26T09:06:44.651Z,8.40
2023-04-26T09:09:21.359Z,8.11
2023-04-26T09:11:59.794Z,7.33
2023-04-26T09:14:32.548Z,8.44
2023-04-26T09:17:03.523Z,8.57
2023-04-26T09:19:42.699Z,8.40
2023-04-26T09:22:12.800Z,7.76
2023-04-26T09:24:53.769Z,7.21
2023-04-26T09:27:24.376Z,7.11
2023-04-26T09:30:09.692Z,8.61
2023-04-26T09:32:51.499Z,7.88
2023-04-26T09:35:33.995Z,7.51
2023-04-26T09:38:10.937Z,7.35
2023-04-26T09:40:44.831Z,7.46
2023-04-26T09:43:17.045Z,8.02
2023-04-26T09:45:51.946Z,6.81
2023-04-26T09:48:26.032Z,8.77
2023-04-26T09:50:58.527Z,7.38
2023-04-26T09:53:34.838Z,8.54
2023-04-26T09:56:13.933Z,8.24
2023-04-26T09:59:01.388Z,7.48
2023-04-26T10:01:35.145Z,7.43
2023-04-26T10:04:06.117Z,8.40
2023-04-26T10:06:36.724Z,6.72
2023-04-26T10:09:09.313Z,5.30
2023-04-26T10:11:41.547Z,5.13
2023-04-26T10:14:11.995Z,4.34
2023-04-26T10:16:47.548Z,4.50
2023-04-26T10:19:17.872Z,5.22
2023-04-26T10:21:51.579Z,4.69
2023-04-26T10:24:22.266Z,5.32
2023-04-26T10:26:53.803Z,5.49
2023-04-26T10:29:24.978Z,5.00
2023-04-26T10:32:16.665Z,5.50
2023-04-26T10:34:47.506Z,4.62
2023-04-26T10:37:18.978Z,5.41
2023-04-26T10:39:50.284Z,4.85
2023-04-26T10:42:24.675Z,4.66
2023-04-26T10:44:56.850Z,4.68
2023-04-26T10:47:32.279Z,4.60
2023-04-26T10:50:10.803Z,4.39
2023-04-26T10:53:04.989Z,4.51
2023-04-26T10:55:43.021Z,4.72
2023-04-26T10:58:29.419Z,4.70
2023-04-26T11:01:11.801Z,4.49
2023-04-26T11:03:45.726Z,4.70
2023-04-26T11:06:16.497Z,4.58
2023-04-26T11:08:46.690Z,4.57
2023-04-26T11:11:19.622Z,4.82
2023-04-26T11:13:50.303Z,4.91
2023-04-26T11:16:21.034Z,5.69
2023-04-26T11:18:57.675Z,5.57
2023-04-26T11:21:29.277Z,4.49
2023-04-26T11:23:59.328Z,4.86
2023-04-26T11:26:37.439Z,4.65
2023-04-26T11:29:13.735Z,5.19
2023-04-26T11:31:43.843Z,5.80
2023-04-26T11:34:17.159Z,5.93
2023-04-26T11:36:47.962Z,6.74
2023-04-26T11:39:18.250Z,4.83
2023-04-26T11:41:48.303Z,4.50
2023-04-26T11:44:22.495Z,4.62
2023-04-26T11:46:53.573Z,4.61
2023-04-26T11:49:29.194Z,5.39
2023-04-26T11:51:59.789Z,4.57
2023-04-26T11:54:31.752Z,4.38
2023-04-26T11:57:03.026Z,4.51
2023-04-26T11:59:34.005Z,3.99
2023-04-26T12:02:10.357Z,5.06
2023-04-26T12:04:45.022Z,4.59
2023-04-26T12:07:15.263Z,4.17
2023-04-26T12:09:45.271Z,4.28
2023-04-26T12:12:15.454Z,4.27
2023-04-26T12:14:45.922Z,4.00
2023-04-26T12:17:18.472Z,3.91
2023-04-26T12:19:53.280Z,3.94
2023-04-26T12:22:24.760Z,4.16
2023-04-26T12:25:08.103Z,4.28
2023-04-26T12:27:39.721Z,4.73
2023-04-26T12:30:11.396Z,4.38
2023-04-26T12:32:42.097Z,4.46
2023-04-26T12:35:14.890Z,4.56
2023-04-26T12:37:44.970Z,4.78
2023-04-26T12:40:16.387Z,4.45
2023-04-26T12:42:46.484Z,4.53
2023-04-26T12:45:16.856Z,4.27
2023-04-26T12:47:47.329Z,4.37
2023-04-26T12:50:20.538Z,4.89
2023-04-26T12:52:50.606Z,4.77
2023-04-26T12:55:21.810Z,4.56
2023-04-26T12:57:51.945Z,4.33
2023-04-26T13:00:23.194Z,4.28
2023-04-26T13:02:53.724Z,4.02
2023-04-26T13:05:27.452Z,4.22
2023-04-26T13:07:57.668Z,4.15
2023-04-26T13:10:28.221Z,4.32
2023-04-26T13:12:58.582Z,4.18
2023-04-26T13:15:30.166Z,4.16
2023-04-26T13:18:00.297Z,3.69
2023-04-26T13:20:32.972Z,3.76
2023-04-26T13:23:03.183Z,3.90
2023-04-26T13:25:33.209Z,3.99
2023-04-26T13:28:03.296Z,3.74
2023-04-26T13:30:36.339Z,3.48
2023-04-26T13:33:06.460Z,3.86
2023-04-26T13:35:39.109Z,4.05
2023-04-26T13:38:13.953Z,3.76
2023-04-26T13:40:44.866Z,3.81
2023-04-26T13:43:14.974Z,4.46
2023-04-26T13:45:45.005Z,4.29
2023-04-26T13:48:15.326Z,3.77
2023-04-26T13:50:48.311Z,4.03
2023-04-26T13:53:19.869Z,3.80
2023-04-26T13:55:49.919Z,4.07
2023-04-26T13:58:20.050Z,4.14
2023-04-26T14:00:50.213Z,3.87
2023-04-26T14:03:20.435Z,3.82
2023-04-26T14:05:53.245Z,3.75
2023-04-26T14:08:23.399Z,4.89
2023-04-26T14:10:53.568Z,5.42
2023-04-26T14:13:23.713Z,4.62
2023-04-26T14:15:53.878Z,4.26
2023-04-26T14:18:23.951Z,4.27
2023-04-26T14:20:56.790Z,4.05
2023-04-26T14:23:27.074Z,4.45
2023-04-26T14:25:57.136Z,3.80
2023-04-26T14:28:27.297Z,3.75
2023-04-26T14:30:57.409Z,3.43
2023-04-26T14:33:27.592Z,3.82
2023-04-26T14:36:00.212Z,3.78
2023-04-26T14:38:30.353Z,4.00
2023-04-26T14:41:00.401Z,3.44
2023-04-26T14:43:30.485Z,4.96
2023-04-26T14:46:00.603Z,4.85
2023-04-26T14:48:30.679Z,4.51
2023-04-26T14:51:06.690Z,5.76
2023-04-26T14:53:36.788Z,5.08
2023-04-26T14:56:07.819Z,4.83
2023-04-26T14:58:37.995Z,4.51
2023-04-26T15:01:08.213Z,4.02
2023-04-26T15:03:38.621Z,4.22
2023-04-26T15:06:11.675Z,4.34
2023-04-26T15:08:41.749Z,4.21
2023-04-26T15:11:11.835Z,4.01
2023-04-26T15:13:41.963Z,4.03
2023-04-26T15:16:12.078Z,4.39
2023-04-26T15:18:42.170Z,4.19
2023-04-26T15:21:19.239Z,3.83
2023-04-26T15:23:49.360Z,4.16
2023-04-26T15:26:20.039Z,3.85
2023-04-26T15:28:50.051Z,3.79
2023-04-26T15:31:20.129Z,3.79
2023-04-26T15:33:50.163Z,3.54
2023-04-26T15:36:24.482Z,3.72
2023-04-26T15:38:54.612Z,3.99
2023-04-26T15:41:24.622Z,3.94
2023-04-26T15:43:57.498Z,3.49
2023-04-26T15:46:27.650Z,3.98
2023-04-26T15:48:57.847Z,4.00
2023-04-26T15:51:30.711Z,3.51
2023-04-26T15:54:00.913Z,3.53
2023-04-26T15:56:31.089Z,3.68
2023-04-26T15:59:01.172Z,3.51
2023-04-26T16:01:31.650Z,3.43
2023-04-26T16:04:01.871Z,3.95
2023-04-26T16:06:35.806Z,3.57
2023-04-26T16:09:22.966Z,3.80
2023-04-26T16:11:54.650Z,4.14
2023-04-26T16:14:24.837Z,3.84
2023-04-26T16:16:54.782Z,4.28
2023-04-26T16:19:24.782Z,4.54
2023-04-26T16:21:57.414Z,4.10
2023-04-26T16:24:27.461Z,4.30
2023-04-26T16:26:57.419Z,4.47
2023-04-26T16:29:27.995Z,4.39
2023-04-26T16:31:58.099Z,4.84
2023-04-26T16:34:28.441Z,5.14
2023-04-26T16:37:01.088Z,4.93
2023-04-26T16:39:31.909Z,5.02
2023-04-26T16:42:02.400Z,4.66
2023-04-26T16:44:32.716Z,4.79
2023-04-26T16:47:02.935Z,4.87
2023-04-26T16:49:32.893Z,5.06
2023-04-26T16:52:05.572Z,4.45
2023-04-26T16:54:35.635Z,4.20
2023-04-26T16:57:06.174Z,4.30
2023-04-26T16:59:36.411Z,4.70
2023-04-26T17:02:06.904Z,4.52
2023-04-26T17:04:37.247Z,4.32
2023-04-26T17:07:10.134Z,4.60
2023-04-26T17:09:40.141Z,4.66
2023-04-26T17:12:10.198Z,4.85
2023-04-26T17:14:41.188Z,5.00
2023-04-26T17:17:11.180Z,4.71
2023-04-26T17:19:41.291Z,5.98
2023-04-26T17:22:13.946Z,4.89
2023-04-26T17:24:43.949Z,4.86
2023-04-26T17:27:13.989Z,5.19
2023-04-26T17:29:43.970Z,5.30
2023-04-26T17:32:14.163Z,4.84
2023-04-26T17:34:45.724Z,4.95
2023-04-26T17:37:18.441Z,4.81
2023-04-26T17:39:48.452Z,5.07
2023-04-26T17:42:18.633Z,4.68
2023-04-26T17:44:48.676Z,4.88
2023-04-26T17:47:18.768Z,5.11
2023-04-26T17:49:48.776Z,4.85
2023-04-26T17:52:21.362Z,4.75
2023-04-26T17:54:51.643Z,4.73
2023-04-26T17:57:23.961Z,4.92
2023-04-26T17:59:54.664Z,4.59
2023-04-26T18:02:24.838Z,4.29
2023-04-26T18:04:56.758Z,4.80
2023-04-26T18:07:29.555Z,4.18
2023-04-26T18:09:59.717Z,4.49
2023-04-26T18:12:30.922Z,4.45
2023-04-26T18:15:01.128Z,5.29
2023-04-26T18:17:31.243Z,5.09
2023-04-26T18:20:01.949Z,4.28
2023-04-26T18:22:34.664Z,3.81
2023-04-26T18:25:04.957Z,4.19
2023-04-26T18:27:35.437Z,4.70
2023-04-26T18:30:05.687Z,4.31
2023-04-26T18:32:35.919Z,4.40
2023-04-26T18:35:07.502Z,4.28
2023-04-26T18:37:41.355Z,4.42
2023-04-26T18:40:12.855Z,4.40
2023-04-26T18:42:45.132Z,4.38
2023-04-26T18:45:15.938Z,3.83
2023-04-26T18:47:45.942Z,4.62
2023-04-26T18:50:15.937Z,4.77
2023-04-26T18:52:48.637Z,4.39
2023-04-26T18:55:18.868Z,4.32
2023-04-26T18:57:49.323Z,4.34
2023-04-26T19:00:20.241Z,4.18
2023-04-26T19:02:51.361Z,4.03
2023-04-26T19:05:21.759Z,4.39
2023-04-26T19:07:57.321Z,4.38
2023-04-26T19:10:27.448Z,4.59
2023-04-26T19:12:57.430Z,5.14
2023-04-26T19:15:27.632Z,4.93
2023-04-26T19:17:58.720Z,4.88
2023-04-26T19:20:29.828Z,4.64
2023-04-26T19:23:02.488Z,4.75
2023-04-26T19:25:32.552Z,4.66
2023-04-26T19:28:04.882Z,4.58
2023-04-26T19:30:48.850Z,5.16
2023-04-26T19:33:18.892Z,5.35
2023-04-26T19:35:49.050Z,5.86
2023-04-26T19:38:22.113Z,6.63
2023-04-26T19:40:53.279Z,5.66
2023-04-26T19:43:23.975Z,5.85
2023-04-26T19:45:54.227Z,6.77
2023-04-26T19:48:24.433Z,7.60
2023-04-26T19:50:54.550Z,8.40
2023-04-26T19:53:27.867Z,6.71
2023-04-26T19:55:57.805Z,7.01
2023-04-26T19:58:27.838Z,6.85
2023-04-26T20:00:58.059Z,6.48
2023-04-26T20:03:28.490Z,6.12
2023-04-26T20:05:58.773Z,9.59
2023-04-26T20:08:31.656Z,9.31
2023-04-26T20:11:05.216Z,7.63
2023-04-26T20:13:36.032Z,7.81
2023-04-26T20:16:06.552Z,8.54
2023-04-26T20:18:37.125Z,7.42
2023-04-26T20:21:07.220Z,7.40
2023-04-26T20:23:40.003Z,6.92
2023-04-26T20:26:10.021Z,6.26
2023-04-26T20:28:40.175Z,6.30
2023-04-26T20:31:10.257Z,7.64
2023-04-26T20:33:40.357Z,7.69
2023-04-26T20:36:11.395Z,6.35
2023-04-26T20:38:44.222Z,6.10
2023-04-26T20:41:14.289Z,6.31
2023-04-26T20:43:44.542Z,6.29
2023-04-26T20:46:14.562Z,6.73
2023-04-26T20:48:44.596Z,7.25
2023-04-26T20:51:14.628Z,6.30
2023-04-26T20:53:47.302Z,5.76
2023-04-26T20:56:17.246Z,5.83
2023-04-26T20:58:47.390Z,5.88
2023-04-26T21:01:17.464Z,6.40
2023-04-26T21:03:47.685Z,6.65
2023-04-26T21:06:18.106Z,6.04
2023-04-26T21:08:50.892Z,6.15
2023-04-26T21:11:20.928Z,6.22
2023-04-26T21:13:50.989Z,6.26
2023-04-26T21:16:21.149Z,6.20
2023-04-26T21:18:51.266Z,6.12
2023-04-26T21:21:21.875Z,5.94
2023-04-26T21:23:54.504Z,6.52
2023-04-26T21:26:24.615Z,6.60
2023-04-26T21:28:54.623Z,6.63
2023-04-26T21:31:24.731Z,6.54
2023-04-26T21:33:54.798Z,6.51
2023-04-26T21:36:24.796Z,6.08
2023-04-26T21:38:57.437Z,6.04
2023-04-26T21:41:30.296Z,6.01
2023-04-26T21:44:00.307Z,6.07
2023-04-26T21:46:30.932Z,6.24
2023-04-26T21:49:00.950Z,5.99
2023-04-26T21:51:31.436Z,6.27
2023-04-26T21:54:04.032Z,6.09
2023-04-26T21:56:34.105Z,6.44
2023-04-26T21:59:04.885Z,5.73
2023-04-26T22:01:34.959Z,6.51
2023-04-26T22:04:05.096Z,5.83
2023-04-26T22:06:35.266Z,5.91
2023-04-26T22:09:09.773Z,5.91
2023-04-26T22:11:40.095Z,6.74
2023-04-26T22:14:10.194Z,6.48
2023-04-26T22:16:40.196Z,5.85
2023-04-26T22:19:10.708Z,5.63
2023-04-26T22:21:41.044Z,5.84
2023-04-26T22:24:13.763Z,5.65
2023-04-26T22:26:43.728Z,5.54
2023-04-26T22:29:13.729Z,5.73
2023-04-26T22:31:43.937Z,5.71
2023-04-26T22:34:13.984Z,5.88
2023-04-26T22:36:43.937Z,5.75
2023-04-26T22:39:17.360Z,5.68
2023-04-26T22:41:47.382Z,5.94
2023-04-26T22:44:17.582Z,5.69
2023-04-26T22:46:47.561Z,5.99
2023-04-26T22:49:17.538Z,6.15
2023-04-26T22:51:57.354Z,6.00
2023-04-26T22:54:38.183Z,5.99
2023-04-26T22:57:08.457Z,5.87
2023-04-26T22:59:38.387Z,5.87
2023-04-26T23:02:08.364Z,5.72
2023-04-26T23:04:38.349Z,6.03
2023-04-26T23:07:08.360Z,5.99
2023-04-26T23:09:41.245Z,6.20
2023-04-26T23:12:11.520Z,6.57
2023-04-26T23:14:41.567Z,6.52
2023-04-26T23:17:13.030Z,6.40
2023-04-26T23:19:43.204Z,6.75
2023-04-26T23:22:13.206Z,6.81
2023-04-26T23:24:45.761Z,6.96
2023-04-26T23:27:15.910Z,6.61
2023-04-26T23:29:45.973Z,7.01
2023-04-26T23:32:16.372Z,7.05
2023-04-26T23:34:46.748Z,7.34
2023-04-26T23:37:16.903Z,7.08
2023-04-26T23:39:49.462Z,7.27
2023-04-26T23:42:19.449Z,7.48
2023-04-26T23:44:49.670Z,7.56
2023-04-26T23:47:19.774Z,7.33
2023-04-26T23:49:49.779Z,7.07
2023-04-26T23:52:19.806Z,7.09
2023-04-26T23:54:52.378Z,7.59
2023-04-26T23:57:22.373Z,6.94
2023-04-26T23:59:52.857Z,7.26
